sensor_id;sensor_type;location;lat;lon;timestamp;temperature;humidity
9885;DHT22;4981;50.966;4.842;2023-11-19T00:00:52;13.00;1.00
9885;DHT22;4981;50.966;4.842;2023-11-19T00:03:19;13.00;1.00
9885;DHT22;4981;50.966;4.842;2023-11-19T00:05:47;13.00;1.00
9885;DHT22;4981;50.966;4.842;2023-11-19T00:08:15;13.00;1.00
9885;DHT22;4981;50.966;4.842;2023-11-19T00:10:42;13.00;1.00
9885;DHT22;4981;50.966;4.842;2023-11-19T00:13:09;13.10;1.00
9885;DHT22;4981;50.966;4.842;2023-11-19T00:15:36;13.10;1.00
9885;DHT22;4981;50.966;4.842;2023-11-19T00:18:03;13.10;1.00
9885;DHT22;4981;50.966;4.842;2023-11-19T00:20:30;13.20;1.00
9885;DHT22;4981;50.966;4.842;2023-11-19T00:22:59;13.20;1.00
9885;DHT22;4981;50.966;4.842;2023-11-19T00:25:28;13.10;1.00
9885;DHT22;4981;50.966;4.842;2023-11-19T00:27:54;13.20;1.00
9885;DHT22;4981;50.966;4.842;2023-11-19T00:30:22;13.20;1.00
9885;DHT22;4981;50.966;4.842;2023-11-19T00:32:49;13.00;1.00
9885;DHT22;4981;50.966;4.842;2023-11-19T00:35:16;13.10;1.00
9885;DHT22;4981;50.966;4.842;2023-11-19T00:37:43;13.10;1.00
9885;DHT22;4981;50.966;4.842;2023-11-19T00:40:12;13.10;1.00
9885;DHT22;4981;50.966;4.842;2023-11-19T00:42:41;13.20;1.00
9885;DHT22;4981;50.966;4.842;2023-11-19T00:45:09;13.20;1.00
9885;DHT22;4981;50.966;4.842;2023-11-19T00:47:38;13.20;1.00
9885;DHT22;4981;50.966;4.842;2023-11-19T00:50:06;13.20;1.00
9885;DHT22;4981;50.966;4.842;2023-11-19T00:52:35;13.20;1.00
9885;DHT22;4981;50.966;4.842;2023-11-19T00:55:03;13.30;1.00
9885;DHT22;4981;50.966;4.842;2023-11-19T00:57:32;13.20;1.00
9885;DHT22;4981;50.966;4.842;2023-11-19T00:59:59;13.10;1.00
9885;DHT22;4981;50.966;4.842;2023-11-19T01:02:26;13.20;1.00
9885;DHT22;4981;50.966;4.842;2023-11-19T01:04:53;13.20;1.00
9885;DHT22;4981;50.966;4.842;2023-11-19T01:07:21;13.20;1.00
9885;DHT22;4981;50.966;4.842;2023-11-19T01:09:49;13.30;1.00
9885;DHT22;4981;50.966;4.842;2023-11-19T01:12:18;13.30;1.00
9885;DHT22;4981;50.966;4.842;2023-11-19T01:14:46;13.20;1.00
9885;DHT22;4981;50.966;4.842;2023-11-19T01:17:13;13.20;1.00
9885;DHT22;4981;50.966;4.842;2023-11-19T01:19:41;13.20;1.00
9885;DHT22;4981;50.966;4.842;2023-11-19T01:22:08;13.20;1.00
9885;DHT22;4981;50.966;4.842;2023-11-19T01:24:35;13.20;1.00
9885;DHT22;4981;50.966;4.842;2023-11-19T01:27:02;13.20;1.00
9885;DHT22;4981;50.966;4.842;2023-11-19T01:29:29;13.30;1.00
9885;DHT22;4981;50.966;4.842;2023-11-19T01:31:58;13.40;1.00
9885;DHT22;4981;50.966;4.842;2023-11-19T01:34:25;13.20;1.00
9885;DHT22;4981;50.966;4.842;2023-11-19T01:36:51;13.20;1.00
9885;DHT22;4981;50.966;4.842;2023-11-19T01:39:18;13.20;1.00
9885;DHT22;4981;50.966;4.842;2023-11-19T01:41:46;13.30;1.00
9885;DHT22;4981;50.966;4.842;2023-11-19T01:44:13;13.10;1.00
9885;DHT22;4981;50.966;4.842;2023-11-19T01:46:41;13.30;1.00
9885;DHT22;4981;50.966;4.842;2023-11-19T01:49:11;13.20;1.00
9885;DHT22;4981;50.966;4.842;2023-11-19T01:51:39;13.20;1.00
9885;DHT22;4981;50.966;4.842;2023-11-19T01:54:07;13.30;1.00
9885;DHT22;4981;50.966;4.842;2023-11-19T01:56:35;13.30;1.00
9885;DHT22;4981;50.966;4.842;2023-11-19T01:59:04;13.10;1.00
9885;DHT22;4981;50.966;4.842;2023-11-19T02:01:31;13.10;1.00
9885;DHT22;4981;50.966;4.842;2023-11-19T02:04:02;13.00;1.00
9885;DHT22;4981;50.966;4.842;2023-11-19T02:06:32;13.00;1.00
9885;DHT22;4981;50.966;4.842;2023-11-19T02:09:00;13.00;1.00
9885;DHT22;4981;50.966;4.842;2023-11-19T02:11:28;13.10;1.00
9885;DHT22;4981;50.966;4.842;2023-11-19T02:16:23;13.00;1.00
9885;DHT22;4981;50.966;4.842;2023-11-19T02:18:50;12.80;1.00
9885;DHT22;4981;50.966;4.842;2023-11-19T02:21:18;12.90;1.00
9885;DHT22;4981;50.966;4.842;2023-11-19T02:23:46;12.90;1.00
9885;DHT22;4981;50.966;4.842;2023-11-19T02:26:20;12.80;1.00
9885;DHT22;4981;50.966;4.842;2023-11-19T02:28:50;12.70;1.00
9885;DHT22;4981;50.966;4.842;2023-11-19T02:31:17;12.80;1.00
9885;DHT22;4981;50.966;4.842;2023-11-19T02:33:45;12.70;1.00
9885;DHT22;4981;50.966;4.842;2023-11-19T02:36:12;12.80;1.00
9885;DHT22;4981;50.966;4.842;2023-11-19T02:38:39;12.70;1.00
9885;DHT22;4981;50.966;4.842;2023-11-19T02:41:07;12.70;1.00
9885;DHT22;4981;50.966;4.842;2023-11-19T02:43:36;12.70;1.00
9885;DHT22;4981;50.966;4.842;2023-11-19T02:46:06;12.70;1.00
9885;DHT22;4981;50.966;4.842;2023-11-19T02:48:34;12.80;1.00
9885;DHT22;4981;50.966;4.842;2023-11-19T02:51:02;12.80;1.00
9885;DHT22;4981;50.966;4.842;2023-11-19T02:53:34;12.80;1.00
9885;DHT22;4981;50.966;4.842;2023-11-19T02:56:03;12.80;1.00
9885;DHT22;4981;50.966;4.842;2023-11-19T02:58:42;13.00;1.00
9885;DHT22;4981;50.966;4.842;2023-11-19T03:01:11;12.80;1.00
9885;DHT22;4981;50.966;4.842;2023-11-19T03:03:48;12.80;1.00
9885;DHT22;4981;50.966;4.842;2023-11-19T03:06:19;12.70;1.00
9885;DHT22;4981;50.966;4.842;2023-11-19T03:08:49;12.80;1.00
9885;DHT22;4981;50.966;4.842;2023-11-19T03:11:16;12.70;1.00
9885;DHT22;4981;50.966;4.842;2023-11-19T03:13:43;12.70;1.00
9885;DHT22;4981;50.966;4.842;2023-11-19T03:16:11;12.60;1.00
9885;DHT22;4981;50.966;4.842;2023-11-19T03:18:38;12.50;1.00
9885;DHT22;4981;50.966;4.842;2023-11-19T03:21:05;12.40;1.00
9885;DHT22;4981;50.966;4.842;2023-11-19T03:23:33;12.50;1.00
9885;DHT22;4981;50.966;4.842;2023-11-19T03:26:00;12.40;1.00
9885;DHT22;4981;50.966;4.842;2023-11-19T03:28:31;12.50;1.00
9885;DHT22;4981;50.966;4.842;2023-11-19T03:30:58;12.40;1.00
9885;DHT22;4981;50.966;4.842;2023-11-19T03:33:26;12.40;1.00
9885;DHT22;4981;50.966;4.842;2023-11-19T03:35:54;12.40;1.00
9885;DHT22;4981;50.966;4.842;2023-11-19T03:38:22;12.60;1.00
9885;DHT22;4981;50.966;4.842;2023-11-19T03:40:49;12.50;1.00
9885;DHT22;4981;50.966;4.842;2023-11-19T03:43:16;12.40;1.00
9885;DHT22;4981;50.966;4.842;2023-11-19T03:45:45;12.50;1.00
9885;DHT22;4981;50.966;4.842;2023-11-19T03:48:12;12.40;1.00
9885;DHT22;4981;50.966;4.842;2023-11-19T03:50:43;12.40;1.00
9885;DHT22;4981;50.966;4.842;2023-11-19T03:53:11;12.40;1.00
9885;DHT22;4981;50.966;4.842;2023-11-19T03:55:38;12.50;1.00
9885;DHT22;4981;50.966;4.842;2023-11-19T03:58:05;12.20;1.00
9885;DHT22;4981;50.966;4.842;2023-11-19T04:00:30;12.30;1.00
9885;DHT22;4981;50.966;4.842;2023-11-19T04:02:58;12.30;1.00
9885;DHT22;4981;50.966;4.842;2023-11-19T04:05:26;12.20;1.00
9885;DHT22;4981;50.966;4.842;2023-11-19T04:07:54;12.30;1.00
9885;DHT22;4981;50.966;4.842;2023-11-19T04:10:21;12.20;1.00
9885;DHT22;4981;50.966;4.842;2023-11-19T04:12:48;12.10;1.00
9885;DHT22;4981;50.966;4.842;2023-11-19T04:15:15;12.10;1.00
9885;DHT22;4981;50.966;4.842;2023-11-19T04:17:42;12.10;1.00
9885;DHT22;4981;50.966;4.842;2023-11-19T04:20:10;12.10;1.00
9885;DHT22;4981;50.966;4.842;2023-11-19T04:22:39;12.20;1.00
9885;DHT22;4981;50.966;4.842;2023-11-19T04:25:08;12.10;1.00
9885;DHT22;4981;50.966;4.842;2023-11-19T04:27:35;12.10;1.00
9885;DHT22;4981;50.966;4.842;2023-11-19T04:30:02;12.00;1.00
9885;DHT22;4981;50.966;4.842;2023-11-19T04:32:31;12.10;1.00
9885;DHT22;4981;50.966;4.842;2023-11-19T04:34:58;12.10;1.00
9885;DHT22;4981;50.966;4.842;2023-11-19T04:37:25;12.10;1.00
9885;DHT22;4981;50.966;4.842;2023-11-19T04:39:51;12.10;1.00
9885;DHT22;4981;50.966;4.842;2023-11-19T04:42:22;12.20;1.00
9885;DHT22;4981;50.966;4.842;2023-11-19T04:44:49;12.20;1.00
9885;DHT22;4981;50.966;4.842;2023-11-19T04:47:16;12.20;1.00
9885;DHT22;4981;50.966;4.842;2023-11-19T04:49:43;12.30;1.00
9885;DHT22;4981;50.966;4.842;2023-11-19T04:52:10;12.30;1.00
9885;DHT22;4981;50.966;4.842;2023-11-19T04:54:41;12.30;1.00
9885;DHT22;4981;50.966;4.842;2023-11-19T04:57:09;12.20;1.00
9885;DHT22;4981;50.966;4.842;2023-11-19T04:59:38;12.20;1.00
9885;DHT22;4981;50.966;4.842;2023-11-19T05:02:05;12.20;1.00
9885;DHT22;4981;50.966;4.842;2023-11-19T05:04:32;12.20;1.00
9885;DHT22;4981;50.966;4.842;2023-11-19T05:06:59;12.10;1.00
9885;DHT22;4981;50.966;4.842;2023-11-19T05:09:26;12.00;1.00
9885;DHT22;4981;50.966;4.842;2023-11-19T05:11:53;12.00;1.00
9885;DHT22;4981;50.966;4.842;2023-11-19T05:14:20;11.90;1.00
9885;DHT22;4981;50.966;4.842;2023-11-19T05:16:49;11.90;1.00
9885;DHT22;4981;50.966;4.842;2023-11-19T05:19:15;11.90;1.00
9885;DHT22;4981;50.966;4.842;2023-11-19T05:21:43;12.00;1.00
9885;DHT22;4981;50.966;4.842;2023-11-19T05:24:10;11.90;1.00
9885;DHT22;4981;50.966;4.842;2023-11-19T05:26:38;11.90;1.00
9885;DHT22;4981;50.966;4.842;2023-11-19T05:29:06;11.80;1.00
9885;DHT22;4981;50.966;4.842;2023-11-19T05:31:33;11.80;1.00
9885;DHT22;4981;50.966;4.842;2023-11-19T05:34:01;11.90;1.00
9885;DHT22;4981;50.966;4.842;2023-11-19T05:36:28;11.80;1.00
9885;DHT22;4981;50.966;4.842;2023-11-19T05:38:55;11.80;1.00
9885;DHT22;4981;50.966;4.842;2023-11-19T05:41:22;11.80;1.00
9885;DHT22;4981;50.966;4.842;2023-11-19T05:43:49;11.60;1.00
9885;DHT22;4981;50.966;4.842;2023-11-19T05:46:19;11.60;1.00
9885;DHT22;4981;50.966;4.842;2023-11-19T05:48:46;11.50;1.00
9885;DHT22;4981;50.966;4.842;2023-11-19T05:51:14;11.50;1.00
9885;DHT22;4981;50.966;4.842;2023-11-19T05:53:41;11.50;1.00
9885;DHT22;4981;50.966;4.842;2023-11-19T05:56:09;11.50;1.00
9885;DHT22;4981;50.966;4.842;2023-11-19T05:58:36;11.50;1.00
9885;DHT22;4981;50.966;4.842;2023-11-19T06:01:05;11.40;1.00
9885;DHT22;4981;50.966;4.842;2023-11-19T06:03:33;11.40;1.00
9885;DHT22;4981;50.966;4.842;2023-11-19T06:06:00;11.40;1.00
9885;DHT22;4981;50.966;4.842;2023-11-19T06:08:29;11.40;1.00
9885;DHT22;4981;50.966;4.842;2023-11-19T06:10:56;11.30;1.00
9885;DHT22;4981;50.966;4.842;2023-11-19T06:13:23;11.50;1.00
9885;DHT22;4981;50.966;4.842;2023-11-19T06:15:51;11.40;1.00
9885;DHT22;4981;50.966;4.842;2023-11-19T06:18:18;11.40;1.00
9885;DHT22;4981;50.966;4.842;2023-11-19T06:20:46;11.40;1.00
9885;DHT22;4981;50.966;4.842;2023-11-19T06:23:13;11.40;1.00
9885;DHT22;4981;50.966;4.842;2023-11-19T06:25:41;11.40;1.00
9885;DHT22;4981;50.966;4.842;2023-11-19T06:28:08;11.60;1.00
9885;DHT22;4981;50.966;4.842;2023-11-19T06:30:35;11.50;1.00
9885;DHT22;4981;50.966;4.842;2023-11-19T06:33:02;11.60;1.00
9885;DHT22;4981;50.966;4.842;2023-11-19T06:35:30;11.50;1.00
9885;DHT22;4981;50.966;4.842;2023-11-19T06:38:02;11.40;1.00
9885;DHT22;4981;50.966;4.842;2023-11-19T06:40:30;11.40;1.00
9885;DHT22;4981;50.966;4.842;2023-11-19T06:42:58;11.50;1.00
9885;DHT22;4981;50.966;4.842;2023-11-19T06:45:25;11.50;1.00
9885;DHT22;4981;50.966;4.842;2023-11-19T06:47:52;11.40;1.00
9885;DHT22;4981;50.966;4.842;2023-11-19T06:50:19;11.30;1.00
9885;DHT22;4981;50.966;4.842;2023-11-19T06:52:46;11.30;1.00
9885;DHT22;4981;50.966;4.842;2023-11-19T06:55:13;11.30;1.00
9885;DHT22;4981;50.966;4.842;2023-11-19T06:57:40;11.30;1.00
9885;DHT22;4981;50.966;4.842;2023-11-19T07:00:09;11.30;1.00
9885;DHT22;4981;50.966;4.842;2023-11-19T07:02:37;11.20;1.00
9885;DHT22;4981;50.966;4.842;2023-11-19T07:05:05;11.20;1.00
9885;DHT22;4981;50.966;4.842;2023-11-19T07:07:33;11.30;1.00
9885;DHT22;4981;50.966;4.842;2023-11-19T07:10:01;11.20;1.00
9885;DHT22;4981;50.966;4.842;2023-11-19T07:12:30;11.20;1.00
9885;DHT22;4981;50.966;4.842;2023-11-19T07:14:57;11.20;1.00
9885;DHT22;4981;50.966;4.842;2023-11-19T07:17:25;11.30;1.00
9885;DHT22;4981;50.966;4.842;2023-11-19T07:19:52;11.30;1.00
9885;DHT22;4981;50.966;4.842;2023-11-19T07:22:20;11.30;1.00
9885;DHT22;4981;50.966;4.842;2023-11-19T07:24:47;11.30;1.00
9885;DHT22;4981;50.966;4.842;2023-11-19T07:27:13;11.30;1.00
9885;DHT22;4981;50.966;4.842;2023-11-19T07:29:43;11.30;1.00
9885;DHT22;4981;50.966;4.842;2023-11-19T07:32:10;11.30;1.00
9885;DHT22;4981;50.966;4.842;2023-11-19T07:34:40;11.20;1.00
9885;DHT22;4981;50.966;4.842;2023-11-19T07:37:07;11.20;1.00
9885;DHT22;4981;50.966;4.842;2023-11-19T07:39:34;11.20;1.00
9885;DHT22;4981;50.966;4.842;2023-11-19T07:42:03;11.30;1.00
9885;DHT22;4981;50.966;4.842;2023-11-19T07:44:31;11.40;1.00
9885;DHT22;4981;50.966;4.842;2023-11-19T07:46:57;11.30;1.00
9885;DHT22;4981;50.966;4.842;2023-11-19T07:49:25;11.20;1.00
9885;DHT22;4981;50.966;4.842;2023-11-19T07:51:53;11.20;1.00
9885;DHT22;4981;50.966;4.842;2023-11-19T07:54:20;11.20;1.00
9885;DHT22;4981;50.966;4.842;2023-11-19T07:56:47;11.30;1.00
9885;DHT22;4981;50.966;4.842;2023-11-19T07:59:15;11.90;1.00
9885;DHT22;4981;50.966;4.842;2023-11-19T08:01:42;10.70;1.00
9885;DHT22;4981;50.966;4.842;2023-11-19T08:04:09;11.20;1.00
9885;DHT22;4981;50.966;4.842;2023-11-19T08:06:36;11.20;1.00
9885;DHT22;4981;50.966;4.842;2023-11-19T08:09:04;11.20;1.00
9885;DHT22;4981;50.966;4.842;2023-11-19T08:11:32;11.30;1.00
9885;DHT22;4981;50.966;4.842;2023-11-19T08:13:59;11.40;1.00
9885;DHT22;4981;50.966;4.842;2023-11-19T08:16:26;11.50;1.00
9885;DHT22;4981;50.966;4.842;2023-11-19T08:18:53;11.50;1.00
9885;DHT22;4981;50.966;4.842;2023-11-19T08:21:20;11.60;1.00
9885;DHT22;4981;50.966;4.842;2023-11-19T08:23:48;11.70;1.00
9885;DHT22;4981;50.966;4.842;2023-11-19T08:26:16;11.60;1.00
9885;DHT22;4981;50.966;4.842;2023-11-19T08:28:43;11.60;1.00
9885;DHT22;4981;50.966;4.842;2023-11-19T08:31:10;11.70;1.00
9885;DHT22;4981;50.966;4.842;2023-11-19T08:33:37;11.60;1.00
9885;DHT22;4981;50.966;4.842;2023-11-19T08:36:04;11.60;1.00
9885;DHT22;4981;50.966;4.842;2023-11-19T08:38:32;11.70;1.00
9885;DHT22;4981;50.966;4.842;2023-11-19T08:40:59;11.70;1.00
9885;DHT22;4981;50.966;4.842;2023-11-19T08:43:27;11.70;1.00
9885;DHT22;4981;50.966;4.842;2023-11-19T08:45:55;11.70;1.00
9885;DHT22;4981;50.966;4.842;2023-11-19T08:48:22;11.90;1.00
9885;DHT22;4981;50.966;4.842;2023-11-19T08:50:49;11.80;1.00
9885;DHT22;4981;50.966;4.842;2023-11-19T08:53:16;11.90;1.00
9885;DHT22;4981;50.966;4.842;2023-11-19T08:55:43;11.90;1.00
9885;DHT22;4981;50.966;4.842;2023-11-19T08:58:10;12.00;1.00
9885;DHT22;4981;50.966;4.842;2023-11-19T09:00:38;11.80;1.00
9885;DHT22;4981;50.966;4.842;2023-11-19T09:03:06;12.10;1.00
9885;DHT22;4981;50.966;4.842;2023-11-19T09:05:35;12.10;1.00
9885;DHT22;4981;50.966;4.842;2023-11-19T09:08:02;12.00;1.00
9885;DHT22;4981;50.966;4.842;2023-11-19T09:10:29;12.10;1.00
9885;DHT22;4981;50.966;4.842;2023-11-19T09:12:59;12.20;1.00
9885;DHT22;4981;50.966;4.842;2023-11-19T09:15:26;12.30;1.00
9885;DHT22;4981;50.966;4.842;2023-11-19T09:17:54;12.30;1.00
9885;DHT22;4981;50.966;4.842;2023-11-19T09:20:21;12.30;1.00
9885;DHT22;4981;50.966;4.842;2023-11-19T09:22:49;12.40;1.00
9885;DHT22;4981;50.966;4.842;2023-11-19T09:25:16;11.60;1.00
9885;DHT22;4981;50.966;4.842;2023-11-19T09:27:43;12.30;1.00
9885;DHT22;4981;50.966;4.842;2023-11-19T09:30:11;12.10;1.00
9885;DHT22;4981;50.966;4.842;2023-11-19T09:32:38;11.90;1.00
9885;DHT22;4981;50.966;4.842;2023-11-19T09:35:08;11.80;1.00
9885;DHT22;4981;50.966;4.842;2023-11-19T09:37:38;11.80;1.00
9885;DHT22;4981;50.966;4.842;2023-11-19T09:40:07;11.90;1.00
9885;DHT22;4981;50.966;4.842;2023-11-19T09:42:41;12.00;1.00
9885;DHT22;4981;50.966;4.842;2023-11-19T09:45:13;12.10;1.00
9885;DHT22;4981;50.966;4.842;2023-11-19T09:47:43;12.10;1.00
9885;DHT22;4981;50.966;4.842;2023-11-19T09:50:15;12.20;1.00
9885;DHT22;4981;50.966;4.842;2023-11-19T09:52:43;12.30;1.00
9885;DHT22;4981;50.966;4.842;2023-11-19T09:55:10;12.30;1.00
9885;DHT22;4981;50.966;4.842;2023-11-19T09:57:38;12.30;1.00
9885;DHT22;4981;50.966;4.842;2023-11-19T10:00:07;12.40;1.00
9885;DHT22;4981;50.966;4.842;2023-11-19T10:02:36;12.30;1.00
9885;DHT22;4981;50.966;4.842;2023-11-19T10:05:06;12.40;1.00
9885;DHT22;4981;50.966;4.842;2023-11-19T10:07:34;12.50;1.00
9885;DHT22;4981;50.966;4.842;2023-11-19T10:10:02;12.60;1.00
9885;DHT22;4981;50.966;4.842;2023-11-19T10:12:30;12.80;1.00
9885;DHT22;4981;50.966;4.842;2023-11-19T10:14:57;12.80;1.00
9885;DHT22;4981;50.966;4.842;2023-11-19T10:17:27;12.90;1.00
9885;DHT22;4981;50.966;4.842;2023-11-19T10:19:55;13.00;1.00
9885;DHT22;4981;50.966;4.842;2023-11-19T10:22:22;13.00;1.00
9885;DHT22;4981;50.966;4.842;2023-11-19T10:24:51;12.90;1.00
9885;DHT22;4981;50.966;4.842;2023-11-19T10:27:18;12.90;1.00
9885;DHT22;4981;50.966;4.842;2023-11-19T10:29:45;12.90;1.00
9885;DHT22;4981;50.966;4.842;2023-11-19T10:32:13;13.00;1.00
9885;DHT22;4981;50.966;4.842;2023-11-19T10:34:40;13.20;1.00
9885;DHT22;4981;50.966;4.842;2023-11-19T10:37:08;13.10;1.00
9885;DHT22;4981;50.966;4.842;2023-11-19T10:39:54;13.00;1.00
9885;DHT22;4981;50.966;4.842;2023-11-19T10:42:21;12.90;1.00
9885;DHT22;4981;50.966;4.842;2023-11-19T10:44:48;12.90;1.00
9885;DHT22;4981;50.966;4.842;2023-11-19T10:47:19;12.80;1.00
9885;DHT22;4981;50.966;4.842;2023-11-19T10:49:46;12.90;1.00
9885;DHT22;4981;50.966;4.842;2023-11-19T10:52:17;12.90;1.00
9885;DHT22;4981;50.966;4.842;2023-11-19T10:54:48;12.90;1.00
9885;DHT22;4981;50.966;4.842;2023-11-19T10:57:21;12.60;1.00
9885;DHT22;4981;50.966;4.842;2023-11-19T10:59:49;12.40;1.00
9885;DHT22;4981;50.966;4.842;2023-11-19T11:02:21;12.50;1.00
9885;DHT22;4981;50.966;4.842;2023-11-19T11:04:50;12.50;1.00
9885;DHT22;4981;50.966;4.842;2023-11-19T11:07:21;12.60;1.00
9885;DHT22;4981;50.966;4.842;2023-11-19T11:09:51;12.50;1.00
9885;DHT22;4981;50.966;4.842;2023-11-19T11:12:22;12.30;1.00
9885;DHT22;4981;50.966;4.842;2023-11-19T11:14:51;12.30;1.00
9885;DHT22;4981;50.966;4.842;2023-11-19T11:17:20;12.30;1.00
9885;DHT22;4981;50.966;4.842;2023-11-19T11:19:53;12.30;1.00
9885;DHT22;4981;50.966;4.842;2023-11-19T11:22:21;12.60;1.00
9885;DHT22;4981;50.966;4.842;2023-11-19T11:25:02;12.60;1.00
9885;DHT22;4981;50.966;4.842;2023-11-19T11:27:48;12.70;1.00
9885;DHT22;4981;50.966;4.842;2023-11-19T11:30:27;12.80;1.00
9885;DHT22;4981;50.966;4.842;2023-11-19T11:33:06;12.70;1.00
9885;DHT22;4981;50.966;4.842;2023-11-19T11:35:47;12.70;1.00
9885;DHT22;4981;50.966;4.842;2023-11-19T11:38:21;12.80;1.00
9885;DHT22;4981;50.966;4.842;2023-11-19T11:41:17;12.80;1.00
9885;DHT22;4981;50.966;4.842;2023-11-19T11:43:47;12.80;1.00
9885;DHT22;4981;50.966;4.842;2023-11-19T11:49:25;13.00;1.00
9885;DHT22;4981;50.966;4.842;2023-11-19T11:52:02;13.00;1.00
9885;DHT22;4981;50.966;4.842;2023-11-19T11:54:32;13.00;1.00
9885;DHT22;4981;50.966;4.842;2023-11-19T11:57:10;13.10;1.00
9885;DHT22;4981;50.966;4.842;2023-11-19T11:59:49;13.10;1.00
9885;DHT22;4981;50.966;4.842;2023-11-19T12:02:17;13.20;1.00
9885;DHT22;4981;50.966;4.842;2023-11-19T12:04:50;13.30;1.00
9885;DHT22;4981;50.966;4.842;2023-11-19T12:07:19;13.40;1.00
9885;DHT22;4981;50.966;4.842;2023-11-19T12:09:52;13.40;1.00
9885;DHT22;4981;50.966;4.842;2023-11-19T12:12:26;13.60;1.00
9885;DHT22;4981;50.966;4.842;2023-11-19T12:15:03;13.50;1.00
9885;DHT22;4981;50.966;4.842;2023-11-19T12:17:46;13.60;1.00
9885;DHT22;4981;50.966;4.842;2023-11-19T12:20:16;13.50;1.00
9885;DHT22;4981;50.966;4.842;2023-11-19T12:22:45;13.30;1.00
9885;DHT22;4981;50.966;4.842;2023-11-19T12:25:15;13.50;1.00
9885;DHT22;4981;50.966;4.842;2023-11-19T12:27:44;13.30;1.00
9885;DHT22;4981;50.966;4.842;2023-11-19T12:30:17;13.30;1.00
9885;DHT22;4981;50.966;4.842;2023-11-19T12:32:47;13.30;1.00
9885;DHT22;4981;50.966;4.842;2023-11-19T12:35:15;13.70;1.00
9885;DHT22;4981;50.966;4.842;2023-11-19T12:37:42;13.30;1.00
9885;DHT22;4981;50.966;4.842;2023-11-19T12:40:14;13.30;1.00
9885;DHT22;4981;50.966;4.842;2023-11-19T12:42:43;13.20;1.00
9885;DHT22;4981;50.966;4.842;2023-11-19T12:45:10;13.20;1.00
9885;DHT22;4981;50.966;4.842;2023-11-19T12:47:39;13.00;1.00
9885;DHT22;4981;50.966;4.842;2023-11-19T12:50:07;13.00;1.00
9885;DHT22;4981;50.966;4.842;2023-11-19T12:52:35;13.00;1.00
9885;DHT22;4981;50.966;4.842;2023-11-19T12:55:03;12.90;1.00
9885;DHT22;4981;50.966;4.842;2023-11-19T12:57:37;13.00;1.00
9885;DHT22;4981;50.966;4.842;2023-11-19T13:00:06;12.90;1.00
9885;DHT22;4981;50.966;4.842;2023-11-19T13:02:47;13.10;1.00
9885;DHT22;4981;50.966;4.842;2023-11-19T13:05:27;13.40;1.00
9885;DHT22;4981;50.966;4.842;2023-11-19T13:08:03;13.40;1.00
9885;DHT22;4981;50.966;4.842;2023-11-19T13:10:31;13.60;1.00
9885;DHT22;4981;50.966;4.842;2023-11-19T13:13:03;13.50;1.00
9885;DHT22;4981;50.966;4.842;2023-11-19T13:15:31;13.60;1.00
9885;DHT22;4981;50.966;4.842;2023-11-19T13:17:59;13.60;1.00
9885;DHT22;4981;50.966;4.842;2023-11-19T13:20:26;13.50;1.00
9885;DHT22;4981;50.966;4.842;2023-11-19T13:22:55;13.30;1.00
9885;DHT22;4981;50.966;4.842;2023-11-19T13:25:22;13.20;1.00
9885;DHT22;4981;50.966;4.842;2023-11-19T13:27:49;13.20;1.00
9885;DHT22;4981;50.966;4.842;2023-11-19T13:30:16;13.10;1.00
9885;DHT22;4981;50.966;4.842;2023-11-19T13:32:43;12.90;1.00
9885;DHT22;4981;50.966;4.842;2023-11-19T13:35:13;13.00;1.00
9885;DHT22;4981;50.966;4.842;2023-11-19T13:37:40;13.00;1.00
9885;DHT22;4981;50.966;4.842;2023-11-19T13:40:08;12.90;1.00
9885;DHT22;4981;50.966;4.842;2023-11-19T13:42:36;13.00;1.00
9885;DHT22;4981;50.966;4.842;2023-11-19T13:45:07;12.90;1.00
9885;DHT22;4981;50.966;4.842;2023-11-19T13:47:37;13.00;1.00
9885;DHT22;4981;50.966;4.842;2023-11-19T13:50:07;13.00;1.00
9885;DHT22;4981;50.966;4.842;2023-11-19T13:52:36;13.00;1.00
9885;DHT22;4981;50.966;4.842;2023-11-19T13:55:06;13.00;1.00
9885;DHT22;4981;50.966;4.842;2023-11-19T13:57:33;13.10;1.00
9885;DHT22;4981;50.966;4.842;2023-11-19T14:00:01;13.10;1.00
9885;DHT22;4981;50.966;4.842;2023-11-19T14:02:31;13.30;1.00
9885;DHT22;4981;50.966;4.842;2023-11-19T14:04:58;13.20;1.00
9885;DHT22;4981;50.966;4.842;2023-11-19T14:07:25;13.10;1.00
9885;DHT22;4981;50.966;4.842;2023-11-19T14:09:54;13.10;1.00
9885;DHT22;4981;50.966;4.842;2023-11-19T14:12:21;13.00;1.00
9885;DHT22;4981;50.966;4.842;2023-11-19T14:14:48;13.00;1.00
9885;DHT22;4981;50.966;4.842;2023-11-19T14:17:15;12.90;1.00
9885;DHT22;4981;50.966;4.842;2023-11-19T14:19:42;12.90;1.00
9885;DHT22;4981;50.966;4.842;2023-11-19T14:22:09;12.80;1.00
9885;DHT22;4981;50.966;4.842;2023-11-19T14:24:37;12.80;1.00
9885;DHT22;4981;50.966;4.842;2023-11-19T14:27:06;12.80;1.00
9885;DHT22;4981;50.966;4.842;2023-11-19T14:29:33;12.70;1.00
9885;DHT22;4981;50.966;4.842;2023-11-19T14:32:01;12.80;1.00
9885;DHT22;4981;50.966;4.842;2023-11-19T14:34:29;12.80;1.00
9885;DHT22;4981;50.966;4.842;2023-11-19T14:36:56;12.70;1.00
9885;DHT22;4981;50.966;4.842;2023-11-19T14:39:23;12.80;1.00
9885;DHT22;4981;50.966;4.842;2023-11-19T14:41:50;12.70;1.00
9885;DHT22;4981;50.966;4.842;2023-11-19T14:44:19;12.70;1.00
9885;DHT22;4981;50.966;4.842;2023-11-19T14:46:46;12.60;1.00
9885;DHT22;4981;50.966;4.842;2023-11-19T14:49:14;12.50;1.00
9885;DHT22;4981;50.966;4.842;2023-11-19T14:51:44;12.60;1.00
9885;DHT22;4981;50.966;4.842;2023-11-19T14:54:11;12.50;1.00
9885;DHT22;4981;50.966;4.842;2023-11-19T14:56:40;12.30;1.00
9885;DHT22;4981;50.966;4.842;2023-11-19T14:59:07;12.20;1.00
9885;DHT22;4981;50.966;4.842;2023-11-19T15:01:35;12.20;1.00
9885;DHT22;4981;50.966;4.842;2023-11-19T15:04:02;12.10;1.00
9885;DHT22;4981;50.966;4.842;2023-11-19T15:06:29;12.20;1.00
9885;DHT22;4981;50.966;4.842;2023-11-19T15:08:57;12.30;1.00
9885;DHT22;4981;50.966;4.842;2023-11-19T15:11:24;12.30;1.00
9885;DHT22;4981;50.966;4.842;2023-11-19T15:13:54;12.30;1.00
9885;DHT22;4981;50.966;4.842;2023-11-19T15:16:21;12.40;1.00
9885;DHT22;4981;50.966;4.842;2023-11-19T15:18:57;12.40;1.00
9885;DHT22;4981;50.966;4.842;2023-11-19T15:21:26;12.30;1.00
9885;DHT22;4981;50.966;4.842;2023-11-19T15:23:54;12.30;1.00
9885;DHT22;4981;50.966;4.842;2023-11-19T15:26:21;12.40;1.00
9885;DHT22;4981;50.966;4.842;2023-11-19T15:28:48;12.40;1.00
9885;DHT22;4981;50.966;4.842;2023-11-19T15:31:15;12.50;1.00
9885;DHT22;4981;50.966;4.842;2023-11-19T15:33:42;12.50;1.00
9885;DHT22;4981;50.966;4.842;2023-11-19T15:36:11;12.40;1.00
9885;DHT22;4981;50.966;4.842;2023-11-19T15:38:38;12.40;1.00
9885;DHT22;4981;50.966;4.842;2023-11-19T15:41:05;12.40;1.00
9885;DHT22;4981;50.966;4.842;2023-11-19T15:43:33;12.40;1.00
9885;DHT22;4981;50.966;4.842;2023-11-19T15:46:00;12.30;1.00
9885;DHT22;4981;50.966;4.842;2023-11-19T15:48:27;12.40;1.00
9885;DHT22;4981;50.966;4.842;2023-11-19T15:50:53;12.40;1.00
9885;DHT22;4981;50.966;4.842;2023-11-19T15:53:21;12.40;1.00
9885;DHT22;4981;50.966;4.842;2023-11-19T15:55:48;12.40;1.00
9885;DHT22;4981;50.966;4.842;2023-11-19T15:58:15;12.40;1.00
9885;DHT22;4981;50.966;4.842;2023-11-19T16:00:43;12.40;1.00
9885;DHT22;4981;50.966;4.842;2023-11-19T16:03:12;12.50;1.00
9885;DHT22;4981;50.966;4.842;2023-11-19T16:05:39;12.50;1.00
9885;DHT22;4981;50.966;4.842;2023-11-19T16:08:09;12.60;1.00
9885;DHT22;4981;50.966;4.842;2023-11-19T16:10:38;12.60;1.00
9885;DHT22;4981;50.966;4.842;2023-11-19T16:13:08;12.60;1.00
9885;DHT22;4981;50.966;4.842;2023-11-19T16:15:35;12.60;1.00
9885;DHT22;4981;50.966;4.842;2023-11-19T16:18:02;12.60;1.00
9885;DHT22;4981;50.966;4.842;2023-11-19T16:20:29;12.60;1.00
9885;DHT22;4981;50.966;4.842;2023-11-19T16:22:59;12.70;1.00
9885;DHT22;4981;50.966;4.842;2023-11-19T16:25:26;12.60;1.00
9885;DHT22;4981;50.966;4.842;2023-11-19T16:27:54;12.70;1.00
9885;DHT22;4981;50.966;4.842;2023-11-19T16:30:22;12.60;1.00